Alyeska Resort
Max's Hourly Weather Roundup
ALYESKA_MAX 5/24/2017
Click Here for Graph

        DATE  TIME   Air  Wind  Wind  Wind  BATT   Rel
                    Temp   Spd   Dir  Gust  Volt  Hum%
                      F   MPH   AVG   MPH   AVG   AVG

   5/24/2017 18:00    33    15   116    40 13.90   100
   5/24/2017 17:00    33    16   104    36 13.89   100
   5/24/2017 16:00    33    22   105    41 13.87   100
   5/24/2017 15:00    33    18    98    38 13.85    99
   5/24/2017 14:00    33    18   100    44 13.80    97
   5/24/2017 13:00    32    15    95    40 13.74    99
   5/24/2017 12:00    32    13   102    31 13.68   100
   5/24/2017 11:00    32    16   106    34 13.66    98
   5/24/2017 10:00    32     8   120    34 13.65   100
   5/24/2017 09:00    32    18    94    36 13.62   100
   5/24/2017 08:00    32    16    99    30 13.10   100
   5/24/2017 07:00    32    13    97    33 12.83   100
   5/24/2017 06:00    32    13   102    27 12.79   100
   5/24/2017 05:00    33    14   105    30 12.80   100
   5/24/2017 04:00    33    14   103    29 12.82    99
   5/24/2017 03:00    35    15   102    33 12.84    91
   5/24/2017 02:00    36    17    98    32 12.87    86
   5/24/2017 01:00    36    15   105    27 12.91    85
   5/23/2017 24:00    37     7    96    20 12.98    81
   5/23/2017 23:00    37     2   123    11 13.12    82
   5/23/2017 22:00    38     1   157     9 13.78    77
   5/23/2017 21:00    41     2   156    11 13.92    69
   5/23/2017 20:00    42     2   186     8 13.92    67
   5/23/2017 19:00    41     6   183    12 13.90    69


Click Here for Graph